createdAt,value
2023-05-09T00:01:51.794Z,13.78
2023-05-09T00:04:19.912Z,13.69
2023-05-09T00:06:49.295Z,13.75
2023-05-09T00:09:17.260Z,13.81
2023-05-09T00:11:45.192Z,13.86
2023-05-09T00:14:14.047Z,13.86
2023-05-09T00:16:42.039Z,13.88
2023-05-09T00:19:10.040Z,13.73
2023-05-09T00:21:37.971Z,13.65
2023-05-09T00:24:08.091Z,13.71
2023-05-09T00:26:36.054Z,13.74
2023-05-09T00:29:04.148Z,13.77
2023-05-09T00:31:32.128Z,13.78
2023-05-09T00:34:00.158Z,13.80
2023-05-09T00:36:28.055Z,13.81
2023-05-09T00:38:56.014Z,13.83
2023-05-09T00:41:25.964Z,13.84
2023-05-09T00:43:53.922Z,13.79
2023-05-09T00:46:22.312Z,13.75
2023-05-09T00:48:50.309Z,13.73
2023-05-09T00:51:18.227Z,13.73
2023-05-09T00:53:46.302Z,13.75
2023-05-09T00:56:14.221Z,13.74
2023-05-09T00:58:43.701Z,13.73
2023-05-09T01:01:11.683Z,13.76
2023-05-09T01:03:40.302Z,13.78
2023-05-09T01:06:11.584Z,13.69
2023-05-09T01:08:45.499Z,13.63
2023-05-09T01:11:14.725Z,13.45
2023-05-09T01:13:53.300Z,13.65
2023-05-09T01:16:25.274Z,13.57
2023-05-09T01:18:57.380Z,13.43
2023-05-09T01:21:28.053Z,13.36
2023-05-09T01:24:26.202Z,13.36
2023-05-09T01:27:08.287Z,13.25
2023-05-09T01:29:38.643Z,13.20
2023-05-09T01:32:09.756Z,13.18
2023-05-09T01:34:37.727Z,13.07
2023-05-09T01:37:06.304Z,12.88
2023-05-09T01:39:35.047Z,12.92
2023-05-09T01:42:03.999Z,12.86
2023-05-09T01:44:33.792Z,12.70
2023-05-09T01:47:03.121Z,12.77
2023-05-09T01:49:31.167Z,12.82
2023-05-09T01:51:59.110Z,12.68
2023-05-09T01:54:27.275Z,12.57
2023-05-09T01:56:55.644Z,12.54
2023-05-09T01:59:23.995Z,12.57
2023-05-09T02:01:52.628Z,12.53
2023-05-09T02:04:21.920Z,12.46
2023-05-09T02:06:50.942Z,12.52
2023-05-09T02:09:19.125Z,12.52
2023-05-09T02:11:47.061Z,12.45
2023-05-09T02:14:15.104Z,12.34
2023-05-09T02:16:43.112Z,12.27
2023-05-09T02:19:11.289Z,12.16
2023-05-09T02:21:40.581Z,12.14
2023-05-09T02:24:08.899Z,12.07
2023-05-09T02:26:36.836Z,12.05
2023-05-09T02:29:04.970Z,12.06
2023-05-09T02:31:33.072Z,12.10
2023-05-09T02:34:01.042Z,12.12
2023-05-09T02:36:29.009Z,12.14
2023-05-09T02:38:58.308Z,12.06
2023-05-09T02:41:27.596Z,12.08
2023-05-09T02:43:55.760Z,11.99
2023-05-09T02:46:23.778Z,11.96
2023-05-09T02:48:52.184Z,11.94
2023-05-09T02:51:20.117Z,11.95
2023-05-09T02:53:48.049Z,11.89
2023-05-09T02:56:17.338Z,11.80
2023-05-09T02:58:51.021Z,11.76
2023-05-09T03:01:19.134Z,11.81
2023-05-09T03:03:47.240Z,11.75
2023-05-09T03:06:15.221Z,11.72
2023-05-09T03:08:43.153Z,11.72
2023-05-09T03:11:11.104Z,11.71
2023-05-09T03:13:40.445Z,11.75
2023-05-09T03:16:08.430Z,11.79
2023-05-09T03:18:36.439Z,11.80
2023-05-09T03:21:04.418Z,11.82
2023-05-09T03:23:32.329Z,11.84
2023-05-09T03:26:00.266Z,11.82
2023-05-09T03:28:29.063Z,11.83
2023-05-09T03:30:58.357Z,11.91
2023-05-09T03:33:26.281Z,11.98
2023-05-09T03:35:54.203Z,11.93
2023-05-09T03:38:24.298Z,11.93
2023-05-09T03:40:52.340Z,12.03
2023-05-09T03:43:20.303Z,12.02
2023-05-09T03:45:48.204Z,12.04
2023-05-09T03:48:17.538Z,12.11
2023-05-09T03:50:45.506Z,12.13
2023-05-09T03:53:13.476Z,12.07
2023-05-09T03:55:41.425Z,12.06
2023-05-09T03:58:09.387Z,11.99
2023-05-09T04:00:37.282Z,11.95
2023-05-09T04:03:05.323Z,12.01
2023-05-09T04:05:35.391Z,11.91
2023-05-09T04:08:03.493Z,11.89
2023-05-09T04:10:31.615Z,11.86
2023-05-09T04:12:59.689Z,11.85
2023-05-09T04:15:27.732Z,11.90
2023-05-09T04:17:55.757Z,11.76
2023-05-09T04:20:23.947Z,11.89
2023-05-09T04:22:53.252Z,12.08
2023-05-09T04:25:21.261Z,12.10
2023-05-09T04:27:49.266Z,12.08
2023-05-09T04:30:17.607Z,12.10
2023-05-09T04:32:46.240Z,12.12
2023-05-09T04:35:15.665Z,12.07
2023-05-09T04:37:44.860Z,12.13
2023-05-09T04:40:14.662Z,12.13
2023-05-09T04:42:42.622Z,12.06
2023-05-09T04:45:11.981Z,12.02
2023-05-09T04:47:40.196Z,11.84
2023-05-09T04:50:09.246Z,11.83
2023-05-09T04:52:37.229Z,11.95
2023-05-09T04:55:05.420Z,12.01
2023-05-09T04:57:34.757Z,11.89
2023-05-09T05:00:02.716Z,11.81
2023-05-09T05:02:30.700Z,11.75
2023-05-09T05:05:10.174Z,11.82
2023-05-09T05:07:39.322Z,11.64
2023-05-09T05:10:08.257Z,11.64
2023-05-09T05:12:37.519Z,11.67
2023-05-09T05:15:06.360Z,11.66
2023-05-09T05:17:34.356Z,11.65
2023-05-09T05:20:03.108Z,11.65
2023-05-09T05:22:32.697Z,11.76
2023-05-09T05:25:01.043Z,11.76
2023-05-09T05:27:29.022Z,11.76
2023-05-09T05:29:58.336Z,11.68
2023-05-09T05:32:26.277Z,11.75
2023-05-09T05:34:54.287Z,11.75
2023-05-09T05:37:22.233Z,11.69
2023-05-09T05:39:51.642Z,11.65
2023-05-09T05:42:19.615Z,11.76
2023-05-09T05:44:47.575Z,11.84
2023-05-09T05:47:16.913Z,11.86
2023-05-09T05:49:45.447Z,11.88
2023-05-09T05:52:13.577Z,11.86
2023-05-09T05:54:41.971Z,11.87
2023-05-09T05:57:09.890Z,11.83
2023-05-09T05:59:37.817Z,11.97
2023-05-09T06:02:05.762Z,12.11
2023-05-09T06:04:35.177Z,12.25
2023-05-09T06:07:03.068Z,12.22
2023-05-09T06:09:30.973Z,12.21
2023-05-09T06:11:58.934Z,12.23
2023-05-09T06:14:26.873Z,12.26
2023-05-09T06:16:54.809Z,12.26
2023-05-09T06:19:22.759Z,12.23
2023-05-09T06:21:52.078Z,12.16
2023-05-09T06:24:31.876Z,12.23
2023-05-09T06:27:02.895Z,12.25
2023-05-09T06:29:31.071Z,12.27
2023-05-09T06:31:59.371Z,12.18
2023-05-09T06:34:27.722Z,12.19
2023-05-09T06:36:57.035Z,12.15
2023-05-09T06:39:24.942Z,12.24
2023-05-09T06:41:52.873Z,12.16
2023-05-09T06:44:20.777Z,12.30
2023-05-09T06:46:48.767Z,12.31
2023-05-09T06:49:16.754Z,12.44
2023-05-09T06:51:44.650Z,12.64
2023-05-09T06:54:13.939Z,12.40
2023-05-09T06:56:41.899Z,12.28
2023-05-09T06:59:13.306Z,12.27
2023-05-09T07:01:41.364Z,12.27
2023-05-09T07:04:09.361Z,12.32
2023-05-09T07:06:37.344Z,12.49
2023-05-09T07:09:05.441Z,12.49
2023-05-09T07:11:37.119Z,12.56
2023-05-09T07:14:05.169Z,12.60
2023-05-09T07:16:34.650Z,12.71
2023-05-09T07:19:04.634Z,12.64
2023-05-09T07:21:34.386Z,12.65
2023-05-09T07:24:02.490Z,12.70
2023-05-09T07:26:30.421Z,12.73
2023-05-09T07:28:59.713Z,12.76
2023-05-09T07:31:27.713Z,12.85
2023-05-09T07:33:55.807Z,12.91
2023-05-09T07:36:23.753Z,12.93
2023-05-09T07:38:52.858Z,12.94
2023-05-09T07:41:20.786Z,12.98
2023-05-09T07:43:48.811Z,12.98
2023-05-09T07:46:18.201Z,12.92
2023-05-09T07:48:46.160Z,12.98
2023-05-09T07:51:14.126Z,12.86
2023-05-09T07:53:42.064Z,12.91
2023-05-09T07:56:10.007Z,13.18
2023-05-09T07:58:37.958Z,13.27
2023-05-09T08:01:05.959Z,13.40
2023-05-09T08:03:35.463Z,13.55
2023-05-09T08:06:04.143Z,13.55
2023-05-09T08:08:32.057Z,13.62
2023-05-09T08:11:00.015Z,13.77
2023-05-09T08:13:28.126Z,13.92
2023-05-09T08:15:56.366Z,13.85
2023-05-09T08:18:24.331Z,13.99
2023-05-09T08:20:53.649Z,14.00
2023-05-09T08:23:21.560Z,13.92
2023-05-09T08:25:49.464Z,13.94
2023-05-09T08:28:18.047Z,14.02
2023-05-09T08:30:45.961Z,13.98
2023-05-09T08:33:13.959Z,13.99
2023-05-09T08:35:41.938Z,14.19
2023-05-09T08:38:11.396Z,14.07
2023-05-09T08:40:39.366Z,14.03
2023-05-09T08:43:08.003Z,14.19
2023-05-09T08:45:36.888Z,14.10
2023-05-09T08:48:04.960Z,14.11
2023-05-09T08:50:32.932Z,14.03
2023-05-09T08:53:00.873Z,13.94
2023-05-09T08:55:30.204Z,14.05
2023-05-09T08:57:58.874Z,14.28
2023-05-09T09:00:27.207Z,14.33
2023-05-09T09:02:55.494Z,14.39
2023-05-09T09:05:40.053Z,14.41
2023-05-09T09:08:10.134Z,14.37
2023-05-09T09:10:41.301Z,14.52
2023-05-09T09:13:09.280Z,14.66
2023-05-09T09:15:37.958Z,14.79
2023-05-09T09:18:09.184Z,14.83
2023-05-09T09:20:37.135Z,14.75
2023-05-09T09:23:05.630Z,14.75
2023-05-09T09:25:33.645Z,14.92
2023-05-09T09:28:02.946Z,14.89
2023-05-09T09:30:30.883Z,14.99
2023-05-09T09:33:00.261Z,14.84
2023-05-09T09:35:28.198Z,14.94
2023-05-09T09:37:59.883Z,14.84
2023-05-09T09:40:28.193Z,15.11
2023-05-09T09:42:57.312Z,15.20
2023-05-09T09:45:27.832Z,15.17
2023-05-09T09:47:55.770Z,15.28
2023-05-09T09:50:25.511Z,15.44
2023-05-09T09:52:54.157Z,15.64
2023-05-09T09:55:23.198Z,15.57
2023-05-09T09:57:51.439Z,15.67
2023-05-09T10:00:20.410Z,15.74
2023-05-09T10:02:50.825Z,15.74
2023-05-09T10:05:22.639Z,15.71
2023-05-09T10:07:57.760Z,15.58
2023-05-09T10:10:27.945Z,15.37
2023-05-09T10:12:57.291Z,15.06
2023-05-09T10:15:25.731Z,14.61
2023-05-09T10:17:56.454Z,14.25
2023-05-09T10:20:25.135Z,14.10
2023-05-09T10:22:55.052Z,13.94
2023-05-09T10:25:23.331Z,13.88
2023-05-09T10:27:51.251Z,13.98
2023-05-09T10:30:20.144Z,14.07
2023-05-09T10:32:50.588Z,14.26
2023-05-09T10:35:20.773Z,14.32
2023-05-09T10:37:48.965Z,14.43
2023-05-09T10:40:17.013Z,14.54
2023-05-09T10:42:45.175Z,14.82
2023-05-09T10:45:13.519Z,15.14
2023-05-09T10:47:42.124Z,15.33
2023-05-09T10:50:12.189Z,15.54
2023-05-09T10:53:14.384Z,15.61
2023-05-09T10:55:50.876Z,15.72
2023-05-09T10:58:23.024Z,15.89
2023-05-09T11:00:51.193Z,16.16
2023-05-09T11:03:19.854Z,16.30
2023-05-09T11:05:48.342Z,16.49
2023-05-09T11:08:21.579Z,16.61
2023-05-09T11:10:49.628Z,16.77
2023-05-09T11:13:21.455Z,16.95
2023-05-09T11:16:05.576Z,17.08
2023-05-09T11:18:33.833Z,17.27
2023-05-09T11:21:08.587Z,17.42
2023-05-09T11:23:38.916Z,17.41
2023-05-09T11:26:07.574Z,17.33
2023-05-09T11:28:36.694Z,17.36
2023-05-09T11:31:11.240Z,17.18
2023-05-09T11:33:39.252Z,16.71
2023-05-09T11:36:18.066Z,16.60
2023-05-09T11:38:47.385Z,16.55
2023-05-09T11:41:15.539Z,16.51
2023-05-09T11:43:44.015Z,16.45
2023-05-09T11:46:12.950Z,16.33
2023-05-09T11:48:41.987Z,16.12
2023-05-09T11:51:10.305Z,15.91
2023-05-09T11:53:44.995Z,15.81
2023-05-09T11:56:14.730Z,15.68
2023-05-09T11:58:42.649Z,15.69
2023-05-09T12:01:12.361Z,15.67
2023-05-09T12:03:44.379Z,15.68
2023-05-09T12:06:16.153Z,15.65
2023-05-09T12:08:44.637Z,15.81
2023-05-09T12:11:14.165Z,15.83
2023-05-09T12:13:48.677Z,15.98
2023-05-09T12:16:17.076Z,16.04
2023-05-09T12:18:48.692Z,16.05
2023-05-09T12:21:16.861Z,15.99
2023-05-09T12:23:45.041Z,15.85
2023-05-09T12:26:14.576Z,15.82
2023-05-09T12:28:42.621Z,15.76
2023-05-09T12:31:10.625Z,15.65
2023-05-09T12:33:38.862Z,15.67
2023-05-09T12:36:09.579Z,15.54
2023-05-09T12:38:37.742Z,15.51
2023-05-09T12:41:09.200Z,15.46
2023-05-09T12:43:43.907Z,15.45
2023-05-09T12:46:12.157Z,15.39
2023-05-09T12:48:40.252Z,15.37
2023-05-09T12:51:08.232Z,15.54
2023-05-09T12:53:39.128Z,15.55
2023-05-09T12:56:13.423Z,15.72
2023-05-09T12:58:48.588Z,15.86
2023-05-09T13:01:16.751Z,16.02
2023-05-09T13:03:45.054Z,16.14
2023-05-09T13:06:14.021Z,16.28
2023-05-09T13:08:42.080Z,16.07
2023-05-09T13:11:16.455Z,15.92
2023-05-09T13:13:46.739Z,15.86
2023-05-09T13:16:16.815Z,15.79
2023-05-09T13:18:45.714Z,15.70
2023-05-09T13:21:13.700Z,15.69
2023-05-09T13:23:42.221Z,15.69
2023-05-09T13:26:10.162Z,15.70
2023-05-09T13:28:38.112Z,15.58
2023-05-09T13:31:08.118Z,15.51
2023-05-09T13:33:36.214Z,15.42
2023-05-09T13:36:04.221Z,15.31
2023-05-09T13:38:33.289Z,15.39
2023-05-09T13:41:01.275Z,15.27
2023-05-09T13:43:29.180Z,15.08
2023-05-09T13:45:57.166Z,14.99
2023-05-09T13:48:26.732Z,15.08
2023-05-09T13:50:54.643Z,15.17
2023-05-09T13:53:22.539Z,15.11
2023-05-09T13:55:50.596Z,15.09
2023-05-09T13:58:18.986Z,15.18
2023-05-09T14:00:46.900Z,15.17
2023-05-09T14:03:14.854Z,15.11
2023-05-09T14:05:44.213Z,15.06
2023-05-09T14:08:12.249Z,15.07
2023-05-09T14:10:40.215Z,15.04
2023-05-09T14:13:08.426Z,15.01
2023-05-09T14:15:36.678Z,15.07
2023-05-09T14:18:04.832Z,15.02
2023-05-09T14:20:35.298Z,15.03
2023-05-09T14:23:04.696Z,15.08
2023-05-09T14:25:32.805Z,15.14
2023-05-09T14:28:00.778Z,15.05
2023-05-09T14:30:28.689Z,15.02
2023-05-09T14:32:56.643Z,14.86
2023-05-09T14:35:24.636Z,14.53
2023-05-09T14:37:52.655Z,14.30
2023-05-09T14:40:22.247Z,14.05
2023-05-09T14:42:50.201Z,14.03
2023-05-09T14:45:18.340Z,13.95
2023-05-09T14:47:46.718Z,13.87
2023-05-09T14:50:15.896Z,13.92
2023-05-09T14:52:44.678Z,13.90
2023-05-09T14:55:12.755Z,13.93
2023-05-09T14:57:42.088Z,13.94
2023-05-09T15:00:20.442Z,13.95
2023-05-09T15:02:49.622Z,13.85
2023-05-09T15:05:17.848Z,13.89
2023-05-09T15:07:45.790Z,13.77
2023-05-09T15:10:13.980Z,13.58
2023-05-09T15:12:44.048Z,13.58
2023-05-09T15:15:15.876Z,13.63
2023-05-09T15:17:44.160Z,13.61
2023-05-09T15:20:13.572Z,13.67
2023-05-09T15:22:41.738Z,13.77
2023-05-09T15:25:10.444Z,13.77
2023-05-09T15:27:38.509Z,13.74
2023-05-09T15:30:08.874Z,13.86
2023-05-09T15:32:40.759Z,13.81
2023-05-09T15:35:09.734Z,13.78
2023-05-09T15:37:38.024Z,13.84
2023-05-09T15:40:07.974Z,13.85
2023-05-09T15:42:36.297Z,13.94
2023-05-09T15:45:04.906Z,13.98
2023-05-09T15:47:34.263Z,14.00
2023-05-09T15:50:02.238Z,14.09
2023-05-09T15:52:30.217Z,14.09
2023-05-09T15:54:58.423Z,14.14
2023-05-09T15:57:26.433Z,14.21
2023-05-09T15:59:56.035Z,14.25
2023-05-09T16:02:24.258Z,14.15
2023-05-09T16:04:53.778Z,14.13
2023-05-09T16:07:21.979Z,14.13
2023-05-09T16:09:50.087Z,14.15
2023-05-09T16:12:18.029Z,14.16
2023-05-09T16:14:45.949Z,14.19
2023-05-09T16:17:14.124Z,14.23
2023-05-09T16:19:42.433Z,14.21
2023-05-09T16:22:11.888Z,14.20
2023-05-09T16:24:39.839Z,14.15
2023-05-09T16:27:07.792Z,14.18
2023-05-09T16:29:35.799Z,14.13
2023-05-09T16:32:03.860Z,14.16
2023-05-09T16:34:32.028Z,14.13
2023-05-09T16:37:00.115Z,14.09
2023-05-09T16:39:29.480Z,14.10
2023-05-09T16:41:57.955Z,14.06
2023-05-09T16:44:26.061Z,14.03
2023-05-09T16:46:54.109Z,14.01
2023-05-09T16:49:22.108Z,13.95
2023-05-09T16:51:50.038Z,13.92
2023-05-09T16:54:17.937Z,13.84
2023-05-09T16:56:47.342Z,13.79
2023-05-09T16:59:15.416Z,13.61
2023-05-09T17:01:43.674Z,13.61
2023-05-09T17:04:11.828Z,13.52
2023-05-09T17:06:40.086Z,13.52
2023-05-09T17:09:08.130Z,13.51
2023-05-09T17:11:36.117Z,13.46
2023-05-09T17:14:05.436Z,13.44
2023-05-09T17:16:35.329Z,13.45
2023-05-09T17:19:05.261Z,13.46
2023-05-09T17:21:33.221Z,13.46
2023-05-09T17:24:02.081Z,13.47
2023-05-09T17:26:30.675Z,13.49
2023-05-09T17:28:58.611Z,13.49
2023-05-09T17:31:28.006Z,13.46
2023-05-09T17:33:56.967Z,13.43
2023-05-09T17:36:25.722Z,13.39
2023-05-09T17:38:53.695Z,13.39
2023-05-09T17:41:22.052Z,13.36
2023-05-09T17:43:51.982Z,13.28
2023-05-09T17:46:19.921Z,13.22
2023-05-09T17:48:49.302Z,13.20
2023-05-09T17:51:17.680Z,13.22
2023-05-09T17:53:45.588Z,13.17
2023-05-09T17:56:13.522Z,13.09
2023-05-09T17:58:41.493Z,13.10
2023-05-09T18:01:09.838Z,13.12
2023-05-09T18:03:37.961Z,13.09
2023-05-09T18:06:07.458Z,13.06
2023-05-09T18:08:36.722Z,13.04
2023-05-09T18:11:04.685Z,13.01
2023-05-09T18:13:33.458Z,13.01
2023-05-09T18:16:01.628Z,12.92
2023-05-09T18:18:31.035Z,12.90
2023-05-09T18:20:59.000Z,12.82
2023-05-09T18:23:28.469Z,12.83
2023-05-09T18:25:56.669Z,12.82
2023-05-09T18:28:25.702Z,12.80
2023-05-09T18:30:54.429Z,12.79
2023-05-09T18:33:23.298Z,12.77
2023-05-09T18:35:51.259Z,12.70
2023-05-09T18:38:19.213Z,12.67
2023-05-09T18:40:48.546Z,12.63
2023-05-09T18:43:16.973Z,12.63
2023-05-09T18:45:48.023Z,12.66
2023-05-09T18:48:16.414Z,12.68
2023-05-09T18:50:44.833Z,12.62
2023-05-09T18:53:12.828Z,12.51
2023-05-09T18:55:41.091Z,12.47
2023-05-09T18:58:10.389Z,12.43
2023-05-09T19:00:39.454Z,12.44
2023-05-09T19:03:07.681Z,12.43
2023-05-09T19:05:35.712Z,12.47
2023-05-09T19:08:04.177Z,12.43
2023-05-09T19:10:32.491Z,12.42
2023-05-09T19:13:00.515Z,12.45
2023-05-09T19:15:30.271Z,12.48
2023-05-09T19:17:58.263Z,12.47
2023-05-09T19:20:26.633Z,12.39
2023-05-09T19:22:54.686Z,12.41
2023-05-09T19:25:22.687Z,12.44
2023-05-09T19:27:50.714Z,12.43
2023-05-09T19:30:19.508Z,12.41
2023-05-09T19:32:48.861Z,12.41
2023-05-09T19:35:16.842Z,12.36
2023-05-09T19:37:44.754Z,12.35
2023-05-09T19:40:13.094Z,12.32
2023-05-09T19:42:41.952Z,12.25
2023-05-09T19:45:10.899Z,12.24
2023-05-09T19:47:38.861Z,12.29
2023-05-09T19:50:09.455Z,12.30
2023-05-09T19:52:37.470Z,12.30
2023-05-09T19:55:05.982Z,12.29
2023-05-09T19:57:33.869Z,12.28
2023-05-09T20:00:01.881Z,12.24
2023-05-09T20:02:29.886Z,12.17
2023-05-09T20:04:57.864Z,12.18
2023-05-09T20:07:27.148Z,12.21
2023-05-09T20:09:55.184Z,12.19
2023-05-09T20:12:23.169Z,12.17
2023-05-09T20:14:51.067Z,12.14
2023-05-09T20:17:19.290Z,12.18
2023-05-09T20:19:47.242Z,12.22
2023-05-09T20:22:15.560Z,12.23
2023-05-09T20:24:45.008Z,12.22
2023-05-09T20:27:12.972Z,12.24
2023-05-09T20:29:40.902Z,12.27
2023-05-09T20:32:09.195Z,12.32
2023-05-09T20:34:37.223Z,12.32
2023-05-09T20:37:05.133Z,12.36
2023-05-09T20:39:33.066Z,12.36
2023-05-09T20:42:02.629Z,12.32
2023-05-09T20:44:30.616Z,12.34
2023-05-09T20:46:58.595Z,12.40
2023-05-09T20:49:27.254Z,12.41
2023-05-09T20:51:56.095Z,12.40
2023-05-09T20:54:24.163Z,12.32
2023-05-09T20:56:52.091Z,12.36
2023-05-09T20:59:21.424Z,12.35
2023-05-09T21:01:49.544Z,12.42
2023-05-09T21:04:17.470Z,12.40
2023-05-09T21:06:45.447Z,12.38
2023-05-09T21:09:13.372Z,12.40
2023-05-09T21:11:41.414Z,12.38
2023-05-09T21:14:09.742Z,12.34
2023-05-09T21:16:39.070Z,12.33
2023-05-09T21:19:08.808Z,12.26
2023-05-09T21:21:36.776Z,12.25
2023-05-09T21:24:09.146Z,12.24
2023-05-09T21:26:37.309Z,12.17
2023-05-09T21:29:05.424Z,12.20
2023-05-09T21:31:33.563Z,12.18
2023-05-09T21:34:09.664Z,12.12
2023-05-09T21:36:38.389Z,12.05
2023-05-09T21:39:09.158Z,12.00
2023-05-09T21:41:37.160Z,12.00
2023-05-09T21:44:05.391Z,11.98
2023-05-09T21:46:33.916Z,11.91
2023-05-09T21:49:03.352Z,11.86
2023-05-09T21:51:31.586Z,11.83
2023-05-09T21:53:59.531Z,11.81
2023-05-09T21:56:27.468Z,11.76
2023-05-09T21:58:55.420Z,11.76
2023-05-09T22:01:23.453Z,11.77
2023-05-09T22:03:51.655Z,11.77
2023-05-09T22:06:21.369Z,11.76
2023-05-09T22:08:51.108Z,11.74
2023-05-09T22:11:19.047Z,11.72
2023-05-09T22:13:46.975Z,11.69
2023-05-09T22:16:14.976Z,11.69
2023-05-09T22:18:43.021Z,11.66
2023-05-09T22:21:10.951Z,11.65
2023-05-09T22:23:40.227Z,11.65
2023-05-09T22:26:08.134Z,11.67
2023-05-09T22:28:36.046Z,11.68
2023-05-09T22:31:04.351Z,11.70
2023-05-09T22:33:32.271Z,11.72
2023-05-09T22:36:00.212Z,11.74
2023-05-09T22:38:28.168Z,11.76
2023-05-09T22:40:57.470Z,11.78
2023-05-09T22:43:28.773Z,11.76
2023-05-09T22:46:01.839Z,11.77
2023-05-09T22:48:29.766Z,11.75
2023-05-09T22:50:57.685Z,11.72
2023-05-09T22:53:25.636Z,11.75
2023-05-09T22:55:54.813Z,11.72
2023-05-09T22:58:24.201Z,11.73
2023-05-09T23:00:52.174Z,11.69
2023-05-09T23:03:20.286Z,11.66
2023-05-09T23:05:48.241Z,11.61
2023-05-09T23:08:16.183Z,11.59
2023-05-09T23:10:44.141Z,11.59
2023-05-09T23:13:12.419Z,11.64
2023-05-09T23:15:41.955Z,11.53
2023-05-09T23:18:09.994Z,11.47
2023-05-09T23:20:38.270Z,11.47
2023-05-09T23:23:06.211Z,11.45
2023-05-09T23:25:34.125Z,11.39
2023-05-09T23:28:02.246Z,11.37
2023-05-09T23:30:30.199Z,11.41
2023-05-09T23:32:59.569Z,11.44
2023-05-09T23:35:27.699Z,11.48
2023-05-09T23:37:55.607Z,11.43
2023-05-09T23:40:23.812Z,11.35
2023-05-09T23:42:51.715Z,11.34
2023-05-09T23:45:19.819Z,11.35
2023-05-09T23:47:47.877Z,11.33
2023-05-09T23:50:17.589Z,11.28
2023-05-09T23:52:49.226Z,11.25
2023-05-09T23:55:17.403Z,11.25
2023-05-09T23:57:45.341Z,11.28
